createdAt,value
2018-06-10T00:00:29.368Z,0
2018-06-10T00:01:29.452Z,0
2018-06-10T00:02:29.337Z,0
2018-06-10T00:03:29.456Z,0
2018-06-10T00:04:29.363Z,0
2018-06-10T00:05:29.400Z,0
2018-06-10T00:06:29.399Z,0
2018-06-10T00:07:29.431Z,0
2018-06-10T00:08:29.382Z,0
2018-06-10T00:09:29.341Z,0
2018-06-10T00:10:29.338Z,0
2018-06-10T00:11:29.355Z,0
2018-06-10T00:12:29.407Z,0
2018-06-10T00:13:29.371Z,0
2018-06-10T00:14:29.353Z,0
2018-06-10T00:15:29.409Z,0
2018-06-10T00:16:29.417Z,0
2018-06-10T00:17:29.414Z,0
2018-06-10T00:18:29.338Z,0
2018-06-10T00:19:29.340Z,0
2018-06-10T00:20:29.302Z,0
2018-06-10T00:21:29.367Z,0
2018-06-10T00:22:29.396Z,0
2018-06-10T00:23:29.400Z,0
2018-06-10T00:24:29.311Z,0
2018-06-10T00:25:29.392Z,0
2018-06-10T00:26:29.351Z,0
2018-06-10T00:27:29.390Z,0
2018-06-10T00:28:29.353Z,0
2018-06-10T00:29:29.405Z,0
2018-06-10T00:30:29.320Z,0
2018-06-10T00:31:29.334Z,0
2018-06-10T00:32:29.370Z,0
2018-06-10T00:33:29.369Z,0
2018-06-10T00:34:29.371Z,0
2018-06-10T00:35:29.270Z,0
2018-06-10T00:36:29.310Z,0
2018-06-10T00:37:29.370Z,0
2018-06-10T00:38:29.337Z,0
2018-06-10T00:39:29.370Z,0
2018-06-10T00:40:29.427Z,0
2018-06-10T00:41:29.426Z,0
2018-06-10T00:42:29.366Z,0
2018-06-10T00:43:29.356Z,0
2018-06-10T00:44:29.359Z,0
2018-06-10T00:45:29.355Z,0
2018-06-10T00:46:29.429Z,0
2018-06-10T00:47:29.357Z,0
2018-06-10T00:48:29.376Z,0
2018-06-10T00:49:29.318Z,0
2018-06-10T00:50:29.408Z,0
2018-06-10T00:51:29.320Z,0
2018-06-10T00:52:29.421Z,0
2018-06-10T00:53:29.421Z,0
2018-06-10T00:54:29.424Z,0
2018-06-10T00:55:29.303Z,0
2018-06-10T00:56:29.328Z,0
2018-06-10T00:57:29.414Z,0
2018-06-10T00:58:29.305Z,0
2018-06-10T00:59:29.370Z,0
2018-06-10T01:00:29.469Z,0
2018-06-10T01:01:29.412Z,0
2018-06-10T01:02:29.469Z,0
2018-06-10T01:03:29.402Z,0
2018-06-10T01:04:29.444Z,0
2018-06-10T01:05:29.374Z,0
2018-06-10T01:06:29.463Z,0
2018-06-10T01:07:29.491Z,0
2018-06-10T01:08:29.437Z,0
2018-06-10T01:09:29.478Z,0
2018-06-10T01:10:29.480Z,0
2018-06-10T01:11:29.471Z,0
2018-06-10T01:12:29.413Z,0
2018-06-10T01:13:29.419Z,0
2018-06-10T01:14:29.464Z,0
2018-06-10T01:15:29.379Z,0
2018-06-10T01:16:29.371Z,0
2018-06-10T01:17:29.478Z,0
2018-06-10T01:18:29.421Z,0
2018-06-10T01:19:29.443Z,0
2018-06-10T01:20:29.400Z,0
2018-06-10T01:21:29.308Z,0
2018-06-10T01:22:29.367Z,0
2018-06-10T01:23:29.368Z,0
2018-06-10T01:24:29.422Z,0
2018-06-10T01:25:29.447Z,0
2018-06-10T01:26:29.306Z,0
2018-06-10T01:27:29.348Z,0
2018-06-10T01:28:29.407Z,0
2018-06-10T01:29:29.406Z,0
2018-06-10T01:30:29.323Z,0
2018-06-10T01:31:29.355Z,0
2018-06-10T01:32:29.358Z,0
2018-06-10T01:33:29.330Z,0
2018-06-10T01:34:29.448Z,0
2018-06-10T01:35:29.436Z,0
2018-06-10T01:36:29.417Z,0
2018-06-10T01:37:29.450Z,0
2018-06-10T01:38:29.449Z,0
2018-06-10T01:39:29.418Z,0
2018-06-10T01:40:29.471Z,0
2018-06-10T01:41:29.479Z,0
2018-06-10T01:42:29.472Z,0
2018-06-10T01:43:29.456Z,0
2018-06-10T01:44:29.437Z,0
2018-06-10T01:45:29.469Z,0
2018-06-10T01:46:29.489Z,0
2018-06-10T01:47:29.398Z,0
2018-06-10T01:48:29.430Z,0
2018-06-10T01:49:29.400Z,0
2018-06-10T01:50:29.394Z,0
2018-06-10T01:51:29.460Z,0
2018-06-10T01:52:29.393Z,0
2018-06-10T01:53:29.398Z,0
2018-06-10T01:54:29.391Z,0
2018-06-10T01:55:29.399Z,0
2018-06-10T01:56:29.464Z,0
2018-06-10T01:57:29.402Z,0
2018-06-10T01:58:29.466Z,0
2018-06-10T01:59:29.398Z,0
2018-06-10T02:00:29.480Z,0
2018-06-10T02:01:29.404Z,0
2018-06-10T02:02:29.405Z,0
2018-06-10T02:03:29.404Z,0
2018-06-10T02:04:29.409Z,0
2018-06-10T02:05:29.440Z,0
2018-06-10T02:06:29.486Z,0
2018-06-10T02:07:29.408Z,0
2018-06-10T02:08:29.363Z,0
2018-06-10T02:09:29.489Z,0
2018-06-10T02:10:29.419Z,0
2018-06-10T02:11:29.501Z,0
2018-06-10T02:12:29.505Z,0
2018-06-10T02:13:29.548Z,0
2018-06-10T02:14:29.544Z,0
2018-06-10T02:15:29.481Z,0
2018-06-10T02:16:29.494Z,0
2018-06-10T02:17:29.527Z,0
2018-06-10T02:18:29.513Z,0
2018-06-10T02:19:29.514Z,0
2018-06-10T02:20:29.454Z,0
2018-06-10T02:21:29.457Z,0
2018-06-10T02:22:29.523Z,0
2018-06-10T02:23:29.414Z,0
2018-06-10T02:24:29.467Z,0
2018-06-10T02:25:29.455Z,0
2018-06-10T02:26:29.466Z,0
2018-06-10T02:27:29.494Z,0
2018-06-10T02:28:29.433Z,0
2018-06-10T02:29:29.489Z,0
2018-06-10T02:30:29.514Z,0
2018-06-10T02:31:29.555Z,0
2018-06-10T02:32:29.433Z,0
2018-06-10T02:33:29.469Z,0
2018-06-10T02:34:29.532Z,0
2018-06-10T02:35:29.478Z,0
2018-06-10T02:36:29.506Z,0
2018-06-10T02:37:29.534Z,0
2018-06-10T02:38:29.466Z,0
2018-06-10T02:39:29.479Z,0
2018-06-10T02:40:29.460Z,0
2018-06-10T02:41:29.480Z,0
2018-06-10T02:42:29.472Z,0
2018-06-10T02:43:29.502Z,0
2018-06-10T02:44:29.785Z,0
2018-06-10T02:45:29.528Z,0
2018-06-10T02:46:29.425Z,0
2018-06-10T02:47:29.512Z,0
2018-06-10T02:48:29.570Z,0
2018-06-10T02:49:29.447Z,0
2018-06-10T02:50:29.442Z,0
2018-06-10T02:51:29.523Z,0
2018-06-10T02:52:29.443Z,0
2018-06-10T02:53:29.442Z,0
2018-06-10T02:54:29.509Z,0
2018-06-10T02:55:29.443Z,0
2018-06-10T02:56:29.459Z,0
2018-06-10T02:57:29.444Z,0
2018-06-10T02:58:29.407Z,0
2018-06-10T02:59:29.491Z,0
2018-06-10T03:00:29.575Z,0
2018-06-10T03:01:29.515Z,0
2018-06-10T03:02:29.484Z,0
2018-06-10T03:03:29.542Z,0
2018-06-10T03:04:29.478Z,0
2018-06-10T03:05:29.455Z,0
2018-06-10T03:06:29.577Z,0
2018-06-10T03:07:29.551Z,0
2018-06-10T03:08:29.423Z,0
2018-06-10T03:09:29.603Z,0
2018-06-10T03:10:29.453Z,5
2018-06-10T03:11:29.517Z,5
2018-06-10T03:12:29.515Z,5
2018-06-10T03:13:29.519Z,5
2018-06-10T03:14:29.446Z,5
2018-06-10T03:15:29.518Z,5
2018-06-10T03:16:29.448Z,11
2018-06-10T03:17:29.519Z,11
2018-06-10T03:18:29.450Z,11
2018-06-10T03:19:29.527Z,16
2018-06-10T03:20:29.559Z,16
2018-06-10T03:21:29.558Z,16
2018-06-10T03:22:29.550Z,16
2018-06-10T03:23:29.490Z,22
2018-06-10T03:24:29.536Z,22
2018-06-10T03:25:29.452Z,22
2018-06-10T03:26:29.586Z,22
2018-06-10T03:27:29.470Z,28
2018-06-10T03:28:29.461Z,28
2018-06-10T03:29:29.503Z,28
2018-06-10T03:30:29.478Z,28
2018-06-10T03:31:29.532Z,28
2018-06-10T03:32:29.546Z,28
2018-06-10T03:33:29.497Z,28
2018-06-10T03:34:29.571Z,28
2018-06-10T03:35:29.537Z,28
2018-06-10T03:36:29.456Z,28
2018-06-10T03:37:29.441Z,22
2018-06-10T03:38:29.589Z,22
2018-06-10T03:39:29.523Z,22
2018-06-10T03:40:29.606Z,22
2018-06-10T03:41:29.544Z,22
2018-06-10T03:42:29.467Z,16
2018-06-10T03:43:29.482Z,16
2018-06-10T03:44:29.576Z,16
2018-06-10T03:45:29.469Z,16
2018-06-10T03:46:29.517Z,16
2018-06-10T03:47:29.569Z,16
2018-06-10T03:48:29.552Z,16
2018-06-10T03:49:29.574Z,16
2018-06-10T03:50:29.473Z,22
2018-06-10T03:51:29.544Z,22
2018-06-10T03:52:29.470Z,22
2018-06-10T03:53:29.542Z,22
2018-06-10T03:54:29.467Z,22
2018-06-10T03:55:29.542Z,22
2018-06-10T03:56:29.477Z,28
2018-06-10T03:57:29.472Z,28
2018-06-10T03:58:29.549Z,28
2018-06-10T03:59:29.546Z,28
2018-06-10T04:00:29.487Z,28
2018-06-10T04:01:29.565Z,28
2018-06-10T04:02:29.489Z,33
2018-06-10T04:03:29.488Z,33
2018-06-10T04:04:29.493Z,33
2018-06-10T04:05:29.490Z,33
2018-06-10T04:06:29.489Z,33
2018-06-10T04:07:29.563Z,33
2018-06-10T04:08:29.527Z,33
2018-06-10T04:09:29.568Z,39
2018-06-10T04:10:29.553Z,39
2018-06-10T04:11:29.509Z,39
2018-06-10T04:12:29.567Z,39
2018-06-10T04:13:29.598Z,39
2018-06-10T04:14:29.493Z,39
2018-06-10T04:15:29.460Z,45
2018-06-10T04:16:29.568Z,45
2018-06-10T04:17:29.498Z,45
2018-06-10T04:18:29.588Z,45
2018-06-10T04:19:29.458Z,50
2018-06-10T04:20:29.572Z,50
2018-06-10T04:21:29.496Z,50
2018-06-10T04:22:29.626Z,50
2018-06-10T04:23:29.570Z,50
2018-06-10T04:24:29.587Z,50
2018-06-10T04:25:29.544Z,56
2018-06-10T04:26:29.567Z,56
2018-06-10T04:27:29.544Z,56
2018-06-10T04:28:29.548Z,61
2018-06-10T04:29:29.595Z,61
2018-06-10T04:30:29.594Z,61
2018-06-10T04:31:29.499Z,61
2018-06-10T04:32:29.499Z,67
2018-06-10T04:33:29.480Z,67
2018-06-10T04:34:29.497Z,67
2018-06-10T04:35:29.576Z,67
2018-06-10T04:36:29.496Z,73
2018-06-10T04:37:29.607Z,73
2018-06-10T04:38:29.573Z,73
2018-06-10T04:39:29.548Z,78
2018-06-10T04:40:29.580Z,78
2018-06-10T04:41:29.502Z,84
2018-06-10T04:42:29.511Z,90
2018-06-10T04:43:29.607Z,95
2018-06-10T04:44:29.488Z,95
2018-06-10T04:45:29.520Z,101
2018-06-10T04:46:29.553Z,106
2018-06-10T04:47:29.484Z,112
2018-06-10T04:48:29.585Z,118
2018-06-10T04:49:29.491Z,123
2018-06-10T04:50:29.628Z,123
2018-06-10T04:51:29.507Z,129
2018-06-10T04:52:29.580Z,129
2018-06-10T04:53:29.533Z,135
2018-06-10T04:54:29.492Z,140
2018-06-10T04:55:29.512Z,146
2018-06-10T04:56:29.547Z,151
2018-06-10T04:57:29.588Z,157
2018-06-10T04:58:29.507Z,157
2018-06-10T04:59:29.518Z,163
2018-06-10T05:00:29.499Z,157
2018-06-10T05:01:29.588Z,157
2018-06-10T05:02:29.516Z,157
2018-06-10T05:03:29.497Z,157
2018-06-10T05:04:29.575Z,157
2018-06-10T05:05:29.612Z,151
2018-06-10T05:06:29.564Z,146
2018-06-10T05:07:29.564Z,140
2018-06-10T05:08:29.553Z,135
2018-06-10T05:09:29.629Z,135
2018-06-10T05:10:29.556Z,135
2018-06-10T05:11:29.500Z,135
2018-06-10T05:12:29.569Z,129
2018-06-10T05:13:29.584Z,135
2018-06-10T05:14:29.528Z,140
2018-06-10T05:15:29.598Z,151
2018-06-10T05:16:29.577Z,157
2018-06-10T05:17:29.573Z,157
2018-06-10T05:18:29.644Z,163
2018-06-10T05:19:29.578Z,163
2018-06-10T05:20:29.593Z,163
2018-06-10T05:21:29.607Z,163
2018-06-10T05:22:29.581Z,174
2018-06-10T05:23:29.645Z,180
2018-06-10T05:24:29.636Z,180
2018-06-10T05:25:29.514Z,185
2018-06-10T05:26:29.592Z,185
2018-06-10T05:27:29.584Z,191
2018-06-10T05:28:29.581Z,191
2018-06-10T05:29:29.555Z,185
2018-06-10T05:30:29.580Z,185
2018-06-10T05:31:29.638Z,180
2018-06-10T05:32:29.656Z,180
2018-06-10T05:33:29.586Z,174
2018-06-10T05:34:29.644Z,174
2018-06-10T05:35:29.538Z,174
2018-06-10T05:36:29.647Z,174
2018-06-10T05:37:29.625Z,174
2018-06-10T05:38:29.660Z,180
2018-06-10T05:39:29.636Z,185
2018-06-10T05:40:29.626Z,196
2018-06-10T05:41:29.551Z,208
2018-06-10T05:42:29.555Z,219
2018-06-10T05:43:29.515Z,225
2018-06-10T05:44:29.555Z,225
2018-06-10T05:45:29.626Z,230
2018-06-10T05:46:29.626Z,225
2018-06-10T05:47:29.561Z,219
2018-06-10T05:48:29.629Z,213
2018-06-10T05:49:29.625Z,219
2018-06-10T05:50:29.557Z,230
2018-06-10T05:51:29.670Z,236
2018-06-10T05:52:29.583Z,241
2018-06-10T05:53:29.624Z,247
2018-06-10T05:54:29.598Z,253
2018-06-10T05:55:29.596Z,264
2018-06-10T05:56:29.631Z,275
2018-06-10T05:57:29.630Z,275
2018-06-10T05:58:29.670Z,286
2018-06-10T05:59:29.643Z,286
2018-06-10T06:00:29.597Z,292
2018-06-10T06:01:29.612Z,298
2018-06-10T06:02:29.558Z,298
2018-06-10T06:03:29.594Z,292
2018-06-10T06:04:29.633Z,286
2018-06-10T06:05:29.679Z,281
2018-06-10T06:06:29.576Z,275
2018-06-10T06:07:29.693Z,270
2018-06-10T06:08:29.558Z,258
2018-06-10T06:09:29.607Z,247
2018-06-10T06:10:29.675Z,241
2018-06-10T06:11:29.679Z,247
2018-06-10T06:12:29.611Z,258
2018-06-10T06:13:29.618Z,270
2018-06-10T06:14:29.608Z,286
2018-06-10T06:15:29.642Z,303
2018-06-10T06:16:29.607Z,309
2018-06-10T06:17:29.603Z,315
2018-06-10T06:18:29.673Z,309
2018-06-10T06:19:29.608Z,309
2018-06-10T06:20:29.675Z,309
2018-06-10T06:21:29.561Z,315
2018-06-10T06:22:29.613Z,315
2018-06-10T06:23:29.567Z,320
2018-06-10T06:24:29.625Z,320
2018-06-10T06:25:29.554Z,326
2018-06-10T06:26:29.679Z,337
2018-06-10T06:27:29.577Z,343
2018-06-10T06:28:29.629Z,343
2018-06-10T06:29:29.589Z,343
2018-06-10T06:30:29.658Z,343
2018-06-10T06:31:29.571Z,348
2018-06-10T06:32:29.572Z,354
2018-06-10T06:33:29.623Z,360
2018-06-10T06:34:29.630Z,371
2018-06-10T06:35:29.685Z,376
2018-06-10T06:36:29.592Z,371
2018-06-10T06:37:29.623Z,360
2018-06-10T06:38:29.687Z,337
2018-06-10T06:39:29.641Z,315
2018-06-10T06:40:29.663Z,292
2018-06-10T06:41:29.662Z,281
2018-06-10T06:42:29.658Z,275
2018-06-10T06:43:29.662Z,264
2018-06-10T06:44:29.595Z,258
2018-06-10T06:45:29.661Z,253
2018-06-10T06:46:29.628Z,247
2018-06-10T06:47:29.597Z,247
2018-06-10T06:48:29.681Z,253
2018-06-10T06:49:29.665Z,258
2018-06-10T06:50:29.595Z,264
2018-06-10T06:51:29.665Z,270
2018-06-10T06:52:29.750Z,264
2018-06-10T06:53:29.573Z,258
2018-06-10T06:54:29.681Z,258
2018-06-10T06:55:29.573Z,253
2018-06-10T06:56:29.645Z,247
2018-06-10T06:57:29.637Z,241
2018-06-10T06:58:29.612Z,236
2018-06-10T06:59:29.593Z,230
2018-06-10T07:00:29.642Z,230
2018-06-10T07:01:29.679Z,219
2018-06-10T07:02:29.560Z,202
2018-06-10T07:03:29.666Z,185
2018-06-10T07:04:29.681Z,180
2018-06-10T07:05:29.607Z,180
2018-06-10T07:06:29.677Z,191
2018-06-10T07:07:29.611Z,196
2018-06-10T07:08:29.610Z,202
2018-06-10T07:09:29.614Z,213
2018-06-10T07:10:29.684Z,225
2018-06-10T07:11:29.584Z,241
2018-06-10T07:12:29.554Z,253
2018-06-10T07:13:29.597Z,264
2018-06-10T07:14:29.672Z,264
2018-06-10T07:15:29.629Z,264
2018-06-10T07:16:29.606Z,258
2018-06-10T07:17:29.670Z,253
2018-06-10T07:18:29.670Z,247
2018-06-10T07:19:29.675Z,241
2018-06-10T07:20:29.627Z,236
2018-06-10T07:21:29.609Z,230
2018-06-10T07:22:29.591Z,230
2018-06-10T07:23:29.695Z,230
2018-06-10T07:24:29.588Z,230
2018-06-10T07:25:29.665Z,230
2018-06-10T07:26:29.658Z,225
2018-06-10T07:27:29.668Z,225
2018-06-10T07:28:29.710Z,225
2018-06-10T07:29:29.712Z,225
2018-06-10T07:30:29.701Z,230
2018-06-10T07:31:29.692Z,236
2018-06-10T07:32:29.625Z,241
2018-06-10T07:33:29.628Z,247
2018-06-10T07:34:29.694Z,253
2018-06-10T07:35:29.635Z,253
2018-06-10T07:36:29.697Z,258
2018-06-10T07:37:29.630Z,258
2018-06-10T07:38:29.633Z,264
2018-06-10T07:39:29.631Z,264
2018-06-10T07:40:29.669Z,264
2018-06-10T07:41:29.727Z,258
2018-06-10T07:42:29.741Z,258
2018-06-10T07:43:29.705Z,258
2018-06-10T07:44:29.718Z,253
2018-06-10T07:45:29.624Z,236
2018-06-10T07:46:29.638Z,236
2018-06-10T07:47:29.722Z,247
2018-06-10T07:48:29.688Z,253
2018-06-10T07:49:29.611Z,258
2018-06-10T07:50:29.675Z,258
2018-06-10T07:51:29.576Z,253
2018-06-10T07:52:29.603Z,247
2018-06-10T07:53:29.607Z,236
2018-06-10T07:54:29.561Z,225
2018-06-10T07:55:29.701Z,219
2018-06-10T07:56:29.687Z,219
2018-06-10T07:57:29.601Z,213
2018-06-10T07:58:29.669Z,219
2018-06-10T07:59:29.581Z,219
2018-06-10T08:00:29.608Z,219
2018-06-10T08:01:29.715Z,225
2018-06-10T08:02:29.740Z,225
2018-06-10T08:03:29.635Z,225
2018-06-10T08:04:29.756Z,225
2018-06-10T08:05:29.835Z,225
2018-06-10T08:06:29.638Z,241
2018-06-10T08:07:29.743Z,253
2018-06-10T08:08:29.685Z,258
2018-06-10T08:09:29.642Z,270
2018-06-10T08:10:29.642Z,275
2018-06-10T08:11:29.699Z,281
2018-06-10T08:12:29.719Z,286
2018-06-10T08:13:29.758Z,292
2018-06-10T08:14:29.719Z,292
2018-06-10T08:15:29.644Z,298
2018-06-10T08:16:29.721Z,298
2018-06-10T08:17:29.727Z,298
2018-06-10T08:18:29.690Z,298
2018-06-10T08:19:29.642Z,303
2018-06-10T08:20:29.689Z,309
2018-06-10T08:21:29.724Z,315
2018-06-10T08:22:29.723Z,320
2018-06-10T08:23:29.692Z,326
2018-06-10T08:24:29.746Z,326
2018-06-10T08:25:29.748Z,331
2018-06-10T08:26:29.762Z,337
2018-06-10T08:27:29.647Z,337
2018-06-10T08:28:29.690Z,331
2018-06-10T08:29:29.805Z,331
2018-06-10T08:30:29.704Z,326
2018-06-10T08:31:29.747Z,320
2018-06-10T08:32:29.736Z,315
2018-06-10T08:33:29.693Z,320
2018-06-10T08:34:29.674Z,331
2018-06-10T08:35:29.741Z,348
2018-06-10T08:36:29.667Z,360
2018-06-10T08:37:29.728Z,376
2018-06-10T08:38:29.740Z,382
2018-06-10T08:39:29.675Z,399
2018-06-10T08:40:29.740Z,421
2018-06-10T08:41:29.758Z,438
2018-06-10T08:42:29.678Z,478
2018-06-10T08:43:29.666Z,500
2018-06-10T08:44:29.648Z,517
2018-06-10T08:45:29.710Z,511
2018-06-10T08:46:29.749Z,545
2018-06-10T08:47:29.723Z,601
2018-06-10T08:48:29.649Z,630
2018-06-10T08:49:29.745Z,630
2018-06-10T08:50:29.702Z,658
2018-06-10T08:51:29.665Z,675
2018-06-10T08:52:29.767Z,714
2018-06-10T08:53:29.648Z,748
2018-06-10T08:54:29.749Z,720
2018-06-10T08:55:29.770Z,720
2018-06-10T08:56:29.747Z,731
2018-06-10T08:57:29.749Z,736
2018-06-10T08:58:29.678Z,736
2018-06-10T08:59:29.719Z,736
2018-06-10T09:00:29.779Z,736
2018-06-10T09:01:29.686Z,748
2018-06-10T09:02:29.757Z,748
2018-06-10T09:03:29.760Z,753
2018-06-10T09:04:29.757Z,742
2018-06-10T09:05:29.688Z,736
2018-06-10T09:06:29.758Z,736
2018-06-10T09:07:29.689Z,680
2018-06-10T09:08:29.714Z,736
2018-06-10T09:09:29.758Z,714
2018-06-10T09:10:29.763Z,720
2018-06-10T09:11:29.777Z,759
2018-06-10T09:12:29.663Z,776
2018-06-10T09:13:29.728Z,781
2018-06-10T09:14:29.696Z,787
2018-06-10T09:15:29.764Z,798
2018-06-10T09:16:29.820Z,821
2018-06-10T09:17:29.665Z,849
2018-06-10T09:18:29.781Z,860
2018-06-10T09:19:29.726Z,849
2018-06-10T09:20:29.729Z,843
2018-06-10T09:21:29.760Z,815
2018-06-10T09:22:29.765Z,776
2018-06-10T09:23:29.734Z,742
2018-06-10T09:24:29.740Z,720
2018-06-10T09:25:29.733Z,720
2018-06-10T09:26:29.772Z,742
2018-06-10T09:27:29.772Z,781
2018-06-10T09:28:29.689Z,832
2018-06-10T09:29:29.752Z,866
2018-06-10T09:30:29.744Z,905
2018-06-10T09:31:29.703Z,933
2018-06-10T09:32:29.811Z,945
2018-06-10T09:33:29.777Z,973
2018-06-10T09:34:29.710Z,978
2018-06-10T09:35:29.814Z,1001
2018-06-10T09:36:29.713Z,1018
2018-06-10T09:37:29.775Z,1035
2018-06-10T09:38:29.779Z,1057
2018-06-10T09:39:29.778Z,1051
2018-06-10T09:40:29.715Z,1046
2018-06-10T09:41:29.777Z,1040
2018-06-10T09:42:29.788Z,1040
2018-06-10T09:43:29.816Z,1040
2018-06-10T09:44:29.814Z,1051
2018-06-10T09:45:29.737Z,1051
2018-06-10T09:46:29.687Z,1051
2018-06-10T09:47:29.738Z,1063
2018-06-10T09:48:29.763Z,1057
2018-06-10T09:49:29.710Z,1057
2018-06-10T09:50:29.706Z,1057
2018-06-10T09:51:29.747Z,1063
2018-06-10T09:52:29.825Z,1057
2018-06-10T09:53:29.708Z,1063
2018-06-10T09:54:29.748Z,1068
2018-06-10T09:55:29.840Z,1091
2018-06-10T09:56:29.812Z,1130
2018-06-10T09:57:29.823Z,1158
2018-06-10T09:58:29.756Z,1192
2018-06-10T09:59:29.791Z,1215
2018-06-10T10:00:29.805Z,1254
2018-06-10T10:01:29.790Z,1299
2018-06-10T10:02:29.791Z,1366
2018-06-10T10:03:29.725Z,1434
2018-06-10T10:04:29.724Z,1513
2018-06-10T10:05:29.729Z,1569
2018-06-10T10:06:29.764Z,1620
2018-06-10T10:07:29.731Z,1653
2018-06-10T10:08:29.793Z,1659
2018-06-10T10:09:29.728Z,1659
2018-06-10T10:10:29.800Z,1659
2018-06-10T10:11:29.849Z,1681
2018-06-10T10:12:29.757Z,1732
2018-06-10T10:13:29.757Z,1794
2018-06-10T10:14:29.836Z,1867
2018-06-10T10:15:29.801Z,1974
2018-06-10T10:16:29.758Z,2120
2018-06-10T10:17:29.804Z,2317
2018-06-10T10:18:29.826Z,2520
2018-06-10T10:19:29.803Z,2711
2018-06-10T10:20:29.786Z,3060
2018-06-10T10:21:29.847Z,3200
2018-06-10T10:22:29.806Z,2812
2018-06-10T10:23:29.742Z,2801
2018-06-10T10:24:29.784Z,2857
2018-06-10T10:25:29.809Z,3071
2018-06-10T10:26:29.707Z,3346
2018-06-10T10:27:29.708Z,3363
2018-06-10T10:28:29.714Z,3256
2018-06-10T10:29:29.730Z,3555
2018-06-10T10:30:29.792Z,3459
2018-06-10T10:31:29.798Z,3330
2018-06-10T10:32:29.676Z,3386
2018-06-10T10:33:29.733Z,3639
2018-06-10T10:34:29.735Z,5321
2018-06-10T10:35:29.747Z,3645
2018-06-10T10:36:29.709Z,4196
2018-06-10T10:37:29.681Z,3195
2018-06-10T10:38:29.705Z,4854
2018-06-10T10:39:29.791Z,6300
2018-06-10T10:40:29.765Z,5400
2018-06-10T10:41:29.799Z,5326
2018-06-10T10:42:29.871Z,4815
2018-06-10T10:43:29.785Z,3521
2018-06-10T10:44:29.745Z,3020
2018-06-10T10:45:29.771Z,3150
2018-06-10T10:46:29.813Z,3369
2018-06-10T10:47:29.686Z,3549
2018-06-10T10:48:29.804Z,3324
2018-06-10T10:49:29.816Z,3414
2018-06-10T10:50:29.754Z,4370
2018-06-10T10:51:29.726Z,5107
2018-06-10T10:52:29.862Z,4230
2018-06-10T10:53:29.780Z,4466
2018-06-10T10:54:29.724Z,3189
2018-06-10T10:55:29.830Z,3037
2018-06-10T10:56:29.723Z,3093
2018-06-10T10:57:29.815Z,3093
2018-06-10T10:58:29.836Z,2621
2018-06-10T10:59:29.804Z,2626
2018-06-10T11:00:29.786Z,3690
2018-06-10T11:01:29.750Z,6266
2018-06-10T11:02:29.759Z,5326
2018-06-10T11:03:29.717Z,3768
2018-06-10T11:04:29.824Z,4342
2018-06-10T11:05:29.788Z,5788
2018-06-10T11:06:29.826Z,6249
2018-06-10T11:07:29.720Z,6305
2018-06-10T11:08:29.739Z,6080
2018-06-10T11:09:29.829Z,6283
2018-06-10T11:10:29.830Z,6496
2018-06-10T11:11:29.742Z,6699
2018-06-10T11:12:29.818Z,6626
2018-06-10T11:13:29.837Z,4308
2018-06-10T11:14:29.778Z,6480
2018-06-10T11:15:29.774Z,6435
2018-06-10T11:16:29.795Z,4106
2018-06-10T11:17:29.872Z,5535
2018-06-10T11:18:29.803Z,3740
2018-06-10T11:19:29.817Z,5658
2018-06-10T11:20:29.819Z,6046
2018-06-10T11:21:29.864Z,6502
2018-06-10T11:22:29.845Z,6350
2018-06-10T11:23:29.753Z,6463
2018-06-10T11:24:29.877Z,5630
2018-06-10T11:25:29.861Z,5866
2018-06-10T11:26:29.883Z,6367
2018-06-10T11:27:29.752Z,6345
2018-06-10T11:28:29.847Z,3245
2018-06-10T11:29:29.816Z,2728
2018-06-10T11:30:29.816Z,3240
2018-06-10T11:31:29.884Z,3380
2018-06-10T11:32:29.835Z,3780
2018-06-10T11:33:29.781Z,3307
2018-06-10T11:34:29.808Z,3285
2018-06-10T11:35:29.837Z,4696
2018-06-10T11:36:29.754Z,3060
2018-06-10T11:37:29.787Z,2705
2018-06-10T11:38:29.803Z,2643
2018-06-10T11:39:29.742Z,2660
2018-06-10T11:40:29.809Z,2671
2018-06-10T11:41:29.853Z,2705
2018-06-10T11:42:30.039Z,3037
2018-06-10T11:43:29.853Z,2970
2018-06-10T11:44:29.794Z,3200
2018-06-10T11:45:29.870Z,3706
2018-06-10T11:46:29.796Z,4550
2018-06-10T11:47:29.798Z,6198
2018-06-10T11:48:29.868Z,5214
2018-06-10T11:49:29.838Z,5658
2018-06-10T11:50:29.794Z,4033
2018-06-10T11:51:29.865Z,4280
2018-06-10T11:52:29.799Z,4938
2018-06-10T11:53:29.822Z,5203
2018-06-10T11:54:29.817Z,7081
2018-06-10T11:55:29.736Z,4753
2018-06-10T11:56:29.802Z,4213
2018-06-10T11:57:29.817Z,3695
2018-06-10T11:58:29.744Z,4286
2018-06-10T11:59:29.859Z,3543
2018-06-10T12:00:29.865Z,3701
2018-06-10T12:01:29.862Z,4837
2018-06-10T12:02:29.958Z,4066
2018-06-10T12:03:29.837Z,3138
2018-06-10T12:04:29.899Z,3003
2018-06-10T12:05:29.902Z,2756
2018-06-10T12:06:29.793Z,2300
2018-06-10T12:07:29.776Z,2345
2018-06-10T12:08:29.833Z,2643
2018-06-10T12:09:29.876Z,2722
2018-06-10T12:10:29.897Z,2857
2018-06-10T12:11:29.780Z,2925
2018-06-10T12:12:29.834Z,2998
2018-06-10T12:13:29.818Z,2857
2018-06-10T12:14:29.879Z,2761
2018-06-10T12:15:29.841Z,2503
2018-06-10T12:16:29.782Z,2531
2018-06-10T12:17:29.806Z,3217
2018-06-10T12:18:29.907Z,5557
2018-06-10T12:19:29.844Z,4365
2018-06-10T12:20:29.802Z,3346
2018-06-10T12:21:29.907Z,3262
2018-06-10T12:22:29.859Z,3886
2018-06-10T12:23:29.869Z,4882
2018-06-10T12:24:29.839Z,4539
2018-06-10T12:25:29.811Z,5236
2018-06-10T12:26:29.792Z,4291
2018-06-10T12:27:29.809Z,3200
2018-06-10T12:28:29.792Z,5416
2018-06-10T12:29:29.818Z,5636
2018-06-10T12:30:29.752Z,3757
2018-06-10T12:31:29.794Z,3465
2018-06-10T12:32:29.872Z,2576
2018-06-10T12:33:29.908Z,2626
2018-06-10T12:34:29.892Z,4089
2018-06-10T12:35:29.848Z,4308
2018-06-10T12:36:29.893Z,5630
2018-06-10T12:37:29.923Z,5613
2018-06-10T12:38:29.872Z,5720
2018-06-10T12:39:29.849Z,3166
2018-06-10T12:40:29.896Z,3386
2018-06-10T12:41:29.865Z,2435
2018-06-10T12:42:29.876Z,2261
2018-06-10T12:43:29.870Z,2469
2018-06-10T12:44:29.885Z,2700
2018-06-10T12:45:29.916Z,2784
2018-06-10T12:46:29.933Z,5551
2018-06-10T12:47:29.823Z,3290
2018-06-10T12:48:29.917Z,3296
2018-06-10T12:49:29.859Z,5782
2018-06-10T12:50:29.811Z,5715
2018-06-10T12:51:29.858Z,5551
2018-06-10T12:52:29.924Z,5332
2018-06-10T12:53:29.945Z,2581
2018-06-10T12:54:29.877Z,2356
2018-06-10T12:55:29.935Z,2401
2018-06-10T12:56:29.884Z,2598
2018-06-10T12:57:29.987Z,2700
2018-06-10T12:58:29.942Z,2790
2018-06-10T12:59:29.876Z,2548
2018-06-10T13:00:29.911Z,2446
2018-06-10T13:01:29.929Z,2345
2018-06-10T13:02:29.846Z,2351
2018-06-10T13:03:29.846Z,5152
2018-06-10T13:04:29.841Z,2475
2018-06-10T13:05:29.785Z,5596
2018-06-10T13:06:29.902Z,5411
2018-06-10T13:07:29.817Z,5371
2018-06-10T13:08:29.877Z,5535
2018-06-10T13:09:29.902Z,5540
2018-06-10T13:10:29.862Z,5394
2018-06-10T13:11:29.819Z,3200
2018-06-10T13:12:29.845Z,2188
2018-06-10T13:13:29.837Z,2053
2018-06-10T13:14:29.918Z,2137
2018-06-10T13:15:29.849Z,1569
2018-06-10T13:16:29.916Z,1541
2018-06-10T13:17:29.850Z,1620
2018-06-10T13:18:29.884Z,1710
2018-06-10T13:19:29.873Z,1743
2018-06-10T13:20:29.873Z,1800
2018-06-10T13:21:29.874Z,1839
2018-06-10T13:22:29.942Z,2002
2018-06-10T13:23:29.915Z,4663
2018-06-10T13:24:29.864Z,4899
2018-06-10T13:25:29.856Z,3594
2018-06-10T13:26:29.812Z,2475
2018-06-10T13:27:29.940Z,2244
2018-06-10T13:28:29.929Z,1963
2018-06-10T13:29:29.858Z,1687
2018-06-10T13:30:29.925Z,1440
2018-06-10T13:31:29.866Z,1350
2018-06-10T13:32:29.958Z,1321
2018-06-10T13:33:29.868Z,1361
2018-06-10T13:34:29.887Z,1445
2018-06-10T13:35:29.939Z,1563
2018-06-10T13:36:29.865Z,1704
2018-06-10T13:37:29.933Z,1710
2018-06-10T13:38:29.937Z,1681
2018-06-10T13:39:29.934Z,1878
2018-06-10T13:40:29.909Z,4612
2018-06-10T13:41:29.870Z,4438
2018-06-10T13:42:29.870Z,4567
2018-06-10T13:43:29.944Z,2458
2018-06-10T13:44:29.869Z,2199
2018-06-10T13:45:29.945Z,3740
2018-06-10T13:46:29.941Z,1850
2018-06-10T13:47:29.898Z,2188
2018-06-10T13:48:29.874Z,2340
2018-06-10T13:49:29.878Z,4263
2018-06-10T13:50:29.878Z,4618
2018-06-10T13:51:29.881Z,4758
2018-06-10T13:52:29.883Z,4280
2018-06-10T13:53:29.965Z,4618